Arnett, Oklahoma
Current Conditions -  °F | °C
As of 9:53 AM on Thursday 30 Oct 2014 (Local Time) from KGAG Reporting Station
Clear Clear  
Wind Chill: 58°   Ceiling: Unl
Heat Index: 58°   Visibility: 10mi
Dew Point: 39°   Wind: 8mph
Humidity: 49%   Direction: 10°N
Pressure: 30.21"   Gusts: NA
Location:  36.14°N, 99.77°W
Report Text: KGAG 301453Z AUTO 01007KT 10SM CLR 14/04 A3021 RMK AO2 SLP221 T01440039 53028
Loading
Personal Weather Stations






























Interactive Weather Map New forecast layout! Learn more

10-Day Weather Forecast

Advertisements
Track Severe Weather on mobile